sensor_id;sensor_type;location;lat;lon;timestamp;P1;durP1;ratioP1;P2;durP2;ratioP2
64619;SDS011;51029;51.058;13.826;2022-07-06T00:01:41;5.30;;;3.37;;
64619;SDS011;51029;51.058;13.826;2022-07-06T00:04:07;7.30;;;3.43;;
64619;SDS011;51029;51.058;13.826;2022-07-06T00:06:33;4.77;;;3.17;;
64619;SDS011;51029;51.058;13.826;2022-07-06T00:08:59;5.20;;;3.50;;
64619;SDS011;51029;51.058;13.826;2022-07-06T00:11:25;5.40;;;3.30;;
64619;SDS011;51029;51.058;13.826;2022-07-06T00:13:51;3.80;;;2.87;;
64619;SDS011;51029;51.058;13.826;2022-07-06T00:16:18;4.70;;;2.93;;
64619;SDS011;51029;51.058;13.826;2022-07-06T00:18:44;4.60;;;3.20;;
64619;SDS011;51029;51.058;13.826;2022-07-06T00:21:10;6.23;;;2.90;;
64619;SDS011;51029;51.058;13.826;2022-07-06T00:23:36;7.13;;;2.70;;
64619;SDS011;51029;51.058;13.826;2022-07-06T00:26:02;4.40;;;2.73;;
64619;SDS011;51029;51.058;13.826;2022-07-06T00:28:28;3.57;;;2.70;;
64619;SDS011;51029;51.058;13.826;2022-07-06T00:30:54;5.93;;;2.83;;
64619;SDS011;51029;51.058;13.826;2022-07-06T00:33:20;9.03;;;3.20;;
64619;SDS011;51029;51.058;13.826;2022-07-06T00:35:46;5.23;;;3.00;;
64619;SDS011;51029;51.058;13.826;2022-07-06T00:38:12;3.77;;;2.90;;
64619;SDS011;51029;51.058;13.826;2022-07-06T00:40:38;4.73;;;2.90;;
64619;SDS011;51029;51.058;13.826;2022-07-06T00:43:04;5.50;;;2.90;;
64619;SDS011;51029;51.058;13.826;2022-07-06T00:45:30;3.53;;;2.80;;
64619;SDS011;51029;51.058;13.826;2022-07-06T00:47:56;5.07;;;3.10;;
64619;SDS011;51029;51.058;13.826;2022-07-06T00:50:22;4.70;;;2.60;;
64619;SDS011;51029;51.058;13.826;2022-07-06T00:52:49;4.37;;;2.80;;
64619;SDS011;51029;51.058;13.826;2022-07-06T00:55:16;4.63;;;2.87;;
64619;SDS011;51029;51.058;13.826;2022-07-06T00:57:43;5.43;;;2.63;;
64619;SDS011;51029;51.058;13.826;2022-07-06T01:00:10;4.73;;;3.00;;
64619;SDS011;51029;51.058;13.826;2022-07-06T01:02:36;4.27;;;2.80;;
64619;SDS011;51029;51.058;13.826;2022-07-06T01:05:05;4.57;;;2.57;;
64619;SDS011;51029;51.058;13.826;2022-07-06T01:07:32;3.20;;;2.60;;
64619;SDS011;51029;51.058;13.826;2022-07-06T01:09:58;4.43;;;3.03;;
64619;SDS011;51029;51.058;13.826;2022-07-06T01:12:24;3.20;;;2.90;;
64619;SDS011;51029;51.058;13.826;2022-07-06T01:14:50;3.37;;;3.00;;
64619;SDS011;51029;51.058;13.826;2022-07-06T01:17:16;2.63;;;2.40;;
64619;SDS011;51029;51.058;13.826;2022-07-06T01:19:43;3.47;;;3.13;;
64619;SDS011;51029;51.058;13.826;2022-07-06T01:22:09;4.03;;;3.20;;
64619;SDS011;51029;51.058;13.826;2022-07-06T01:24:35;3.37;;;2.80;;
64619;SDS011;51029;51.058;13.826;2022-07-06T01:27:02;3.33;;;3.00;;
64619;SDS011;51029;51.058;13.826;2022-07-06T01:29:29;5.13;;;3.17;;
64619;SDS011;51029;51.058;13.826;2022-07-06T01:31:55;2.80;;;2.60;;
64619;SDS011;51029;51.058;13.826;2022-07-06T01:34:21;3.30;;;3.00;;
64619;SDS011;51029;51.058;13.826;2022-07-06T01:36:47;2.77;;;2.53;;
64619;SDS011;51029;51.058;13.826;2022-07-06T01:39:13;3.23;;;2.67;;
64619;SDS011;51029;51.058;13.826;2022-07-06T01:41:39;3.20;;;2.90;;
64619;SDS011;51029;51.058;13.826;2022-07-06T01:44:05;3.70;;;3.00;;
64619;SDS011;51029;51.058;13.826;2022-07-06T01:46:31;3.60;;;2.90;;
64619;SDS011;51029;51.058;13.826;2022-07-06T01:48:57;4.73;;;3.13;;
64619;SDS011;51029;51.058;13.826;2022-07-06T01:51:23;3.50;;;3.20;;
64619;SDS011;51029;51.058;13.826;2022-07-06T01:53:50;3.60;;;2.70;;
64619;SDS011;51029;51.058;13.826;2022-07-06T01:56:16;3.13;;;2.67;;
64619;SDS011;51029;51.058;13.826;2022-07-06T01:58:44;3.10;;;2.50;;
64619;SDS011;51029;51.058;13.826;2022-07-06T02:01:10;2.80;;;2.60;;
64619;SDS011;51029;51.058;13.826;2022-07-06T02:03:37;2.90;;;2.70;;
64619;SDS011;51029;51.058;13.826;2022-07-06T02:06:03;3.07;;;2.77;;
64619;SDS011;51029;51.058;13.826;2022-07-06T02:08:30;5.00;;;3.30;;
64619;SDS011;51029;51.058;13.826;2022-07-06T02:10:56;4.67;;;2.90;;
64619;SDS011;51029;51.058;13.826;2022-07-06T02:13:22;3.77;;;2.90;;
64619;SDS011;51029;51.058;13.826;2022-07-06T02:15:48;3.77;;;3.10;;
64619;SDS011;51029;51.058;13.826;2022-07-06T02:18:14;5.67;;;3.03;;
64619;SDS011;51029;51.058;13.826;2022-07-06T02:20:40;3.87;;;3.00;;
64619;SDS011;51029;51.058;13.826;2022-07-06T02:23:06;3.70;;;3.00;;
64619;SDS011;51029;51.058;13.826;2022-07-06T02:25:32;3.30;;;2.90;;
64619;SDS011;51029;51.058;13.826;2022-07-06T02:27:58;3.20;;;2.90;;
64619;SDS011;51029;51.058;13.826;2022-07-06T02:30:24;3.20;;;2.90;;
64619;SDS011;51029;51.058;13.826;2022-07-06T02:32:50;4.77;;;3.27;;
64619;SDS011;51029;51.058;13.826;2022-07-06T02:35:16;3.60;;;3.10;;
64619;SDS011;51029;51.058;13.826;2022-07-06T02:37:42;3.33;;;3.00;;
64619;SDS011;51029;51.058;13.826;2022-07-06T02:40:08;4.17;;;3.20;;
64619;SDS011;51029;51.058;13.826;2022-07-06T02:42:34;4.43;;;3.20;;
64619;SDS011;51029;51.058;13.826;2022-07-06T02:45:00;4.03;;;2.73;;
64619;SDS011;51029;51.058;13.826;2022-07-06T02:47:26;3.67;;;2.80;;
64619;SDS011;51029;51.058;13.826;2022-07-06T02:49:53;3.87;;;3.00;;
64619;SDS011;51029;51.058;13.826;2022-07-06T02:52:19;4.40;;;2.60;;
64619;SDS011;51029;51.058;13.826;2022-07-06T02:54:45;4.30;;;2.93;;
64619;SDS011;51029;51.058;13.826;2022-07-06T02:57:11;3.10;;;2.80;;
64619;SDS011;51029;51.058;13.826;2022-07-06T02:59:37;5.30;;;2.90;;
64619;SDS011;51029;51.058;13.826;2022-07-06T03:02:04;3.10;;;2.80;;
64619;SDS011;51029;51.058;13.826;2022-07-06T03:04:30;3.30;;;3.00;;
64619;SDS011;51029;51.058;13.826;2022-07-06T03:06:55;2.87;;;2.67;;
64619;SDS011;51029;51.058;13.826;2022-07-06T03:09:21;3.80;;;3.40;;
64619;SDS011;51029;51.058;13.826;2022-07-06T03:11:47;3.27;;;2.97;;
64619;SDS011;51029;51.058;13.826;2022-07-06T03:14:13;3.47;;;3.10;;
64619;SDS011;51029;51.058;13.826;2022-07-06T03:16:39;3.50;;;3.20;;
64619;SDS011;51029;51.058;13.826;2022-07-06T03:19:05;4.27;;;3.03;;
64619;SDS011;51029;51.058;13.826;2022-07-06T03:21:31;3.90;;;3.07;;
64619;SDS011;51029;51.058;13.826;2022-07-06T03:23:57;7.07;;;3.10;;
64619;SDS011;51029;51.058;13.826;2022-07-06T03:26:23;3.83;;;3.03;;
64619;SDS011;51029;51.058;13.826;2022-07-06T03:28:49;3.30;;;3.10;;
64619;SDS011;51029;51.058;13.826;2022-07-06T03:31:15;4.03;;;3.70;;
64619;SDS011;51029;51.058;13.826;2022-07-06T03:33:41;5.13;;;3.33;;
64619;SDS011;51029;51.058;13.826;2022-07-06T03:36:07;4.67;;;3.27;;
64619;SDS011;51029;51.058;13.826;2022-07-06T03:38:33;3.20;;;3.00;;
64619;SDS011;51029;51.058;13.826;2022-07-06T03:40:59;3.70;;;3.07;;
64619;SDS011;51029;51.058;13.826;2022-07-06T03:43:25;4.07;;;3.67;;
64619;SDS011;51029;51.058;13.826;2022-07-06T03:45:51;5.43;;;3.57;;
64619;SDS011;51029;51.058;13.826;2022-07-06T03:48:17;4.93;;;3.60;;
64619;SDS011;51029;51.058;13.826;2022-07-06T03:50:43;5.97;;;3.87;;
64619;SDS011;51029;51.058;13.826;2022-07-06T03:53:09;3.70;;;3.27;;
64619;SDS011;51029;51.058;13.826;2022-07-06T03:55:36;5.23;;;3.90;;
64619;SDS011;51029;51.058;13.826;2022-07-06T03:58:02;3.90;;;3.50;;
64619;SDS011;51029;51.058;13.826;2022-07-06T04:00:28;3.90;;;3.60;;
64619;SDS011;51029;51.058;13.826;2022-07-06T04:02:54;4.83;;;3.90;;
64619;SDS011;51029;51.058;13.826;2022-07-06T04:05:20;5.67;;;3.60;;
64619;SDS011;51029;51.058;13.826;2022-07-06T04:07:49;4.93;;;3.60;;
64619;SDS011;51029;51.058;13.826;2022-07-06T04:10:15;5.10;;;3.67;;
64619;SDS011;51029;51.058;13.826;2022-07-06T04:12:42;7.33;;;3.83;;
64619;SDS011;51029;51.058;13.826;2022-07-06T04:15:08;6.23;;;4.00;;
64619;SDS011;51029;51.058;13.826;2022-07-06T04:17:34;4.13;;;3.67;;
64619;SDS011;51029;51.058;13.826;2022-07-06T04:20:19;4.47;;;3.60;;
64619;SDS011;51029;51.058;13.826;2022-07-06T04:22:45;6.43;;;4.17;;
64619;SDS011;51029;51.058;13.826;2022-07-06T04:25:11;4.53;;;4.00;;
64619;SDS011;51029;51.058;13.826;2022-07-06T04:27:37;5.10;;;4.27;;
64619;SDS011;51029;51.058;13.826;2022-07-06T04:30:03;5.03;;;4.27;;
64619;SDS011;51029;51.058;13.826;2022-07-06T04:32:29;5.10;;;4.10;;
64619;SDS011;51029;51.058;13.826;2022-07-06T04:34:55;5.40;;;4.50;;
64619;SDS011;51029;51.058;13.826;2022-07-06T04:37:21;5.37;;;4.87;;
64619;SDS011;51029;51.058;13.826;2022-07-06T04:39:47;5.27;;;4.67;;
64619;SDS011;51029;51.058;13.826;2022-07-06T04:42:13;5.43;;;4.93;;
64619;SDS011;51029;51.058;13.826;2022-07-06T04:44:39;5.43;;;4.93;;
64619;SDS011;51029;51.058;13.826;2022-07-06T04:47:05;5.67;;;5.17;;
64619;SDS011;51029;51.058;13.826;2022-07-06T04:49:31;8.57;;;5.17;;
64619;SDS011;51029;51.058;13.826;2022-07-06T04:51:57;5.67;;;5.13;;
64619;SDS011;51029;51.058;13.826;2022-07-06T04:54:23;8.67;;;5.57;;
64619;SDS011;51029;51.058;13.826;2022-07-06T04:56:49;7.43;;;5.40;;
64619;SDS011;51029;51.058;13.826;2022-07-06T04:59:15;7.93;;;5.37;;
64619;SDS011;51029;51.058;13.826;2022-07-06T05:01:41;7.23;;;6.47;;
64619;SDS011;51029;51.058;13.826;2022-07-06T05:04:08;5.83;;;4.97;;
64619;SDS011;51029;51.058;13.826;2022-07-06T05:06:34;8.77;;;5.43;;
64619;SDS011;51029;51.058;13.826;2022-07-06T05:09:00;6.30;;;5.57;;
64619;SDS011;51029;51.058;13.826;2022-07-06T05:11:26;6.03;;;5.10;;
64619;SDS011;51029;51.058;13.826;2022-07-06T05:13:52;6.50;;;5.33;;
64619;SDS011;51029;51.058;13.826;2022-07-06T05:16:19;7.57;;;5.93;;
64619;SDS011;51029;51.058;13.826;2022-07-06T05:18:45;5.43;;;4.90;;
64619;SDS011;51029;51.058;13.826;2022-07-06T05:21:11;5.70;;;5.20;;
64619;SDS011;51029;51.058;13.826;2022-07-06T05:23:37;6.73;;;4.63;;
64619;SDS011;51029;51.058;13.826;2022-07-06T05:26:03;6.13;;;5.53;;
64619;SDS011;51029;51.058;13.826;2022-07-06T05:28:29;6.87;;;5.20;;
64619;SDS011;51029;51.058;13.826;2022-07-06T05:30:55;9.87;;;4.77;;
64619;SDS011;51029;51.058;13.826;2022-07-06T05:33:21;6.70;;;4.80;;
64619;SDS011;51029;51.058;13.826;2022-07-06T05:35:46;6.53;;;4.53;;
64619;SDS011;51029;51.058;13.826;2022-07-06T05:38:12;5.03;;;4.33;;
64619;SDS011;51029;51.058;13.826;2022-07-06T05:40:38;6.17;;;4.80;;
64619;SDS011;51029;51.058;13.826;2022-07-06T05:43:04;6.50;;;4.90;;
64619;SDS011;51029;51.058;13.826;2022-07-06T05:45:30;6.30;;;5.07;;
64619;SDS011;51029;51.058;13.826;2022-07-06T05:47:56;10.03;;;5.50;;
64619;SDS011;51029;51.058;13.826;2022-07-06T05:50:41;5.80;;;4.80;;
64619;SDS011;51029;51.058;13.826;2022-07-06T05:53:07;6.27;;;4.63;;
64619;SDS011;51029;51.058;13.826;2022-07-06T05:55:33;7.40;;;5.00;;
64619;SDS011;51029;51.058;13.826;2022-07-06T05:57:59;5.60;;;4.40;;
64619;SDS011;51029;51.058;13.826;2022-07-06T06:00:26;6.10;;;4.93;;
64619;SDS011;51029;51.058;13.826;2022-07-06T06:02:52;4.97;;;4.40;;
64619;SDS011;51029;51.058;13.826;2022-07-06T06:05:18;5.73;;;4.50;;
64619;SDS011;51029;51.058;13.826;2022-07-06T06:07:44;7.13;;;4.70;;
64619;SDS011;51029;51.058;13.826;2022-07-06T06:10:16;6.07;;;4.40;;
64619;SDS011;51029;51.058;13.826;2022-07-06T06:12:42;5.13;;;4.20;;
64619;SDS011;51029;51.058;13.826;2022-07-06T06:15:08;8.37;;;3.97;;
64619;SDS011;51029;51.058;13.826;2022-07-06T06:17:35;5.03;;;3.77;;
64619;SDS011;51029;51.058;13.826;2022-07-06T06:20:01;6.37;;;4.10;;
64619;SDS011;51029;51.058;13.826;2022-07-06T06:22:27;6.93;;;3.90;;
64619;SDS011;51029;51.058;13.826;2022-07-06T06:24:53;7.07;;;3.93;;
64619;SDS011;51029;51.058;13.826;2022-07-06T06:27:19;5.63;;;3.50;;
64619;SDS011;51029;51.058;13.826;2022-07-06T06:29:45;5.37;;;3.60;;
64619;SDS011;51029;51.058;13.826;2022-07-06T06:32:11;6.37;;;3.40;;
64619;SDS011;51029;51.058;13.826;2022-07-06T06:34:38;6.23;;;3.37;;
64619;SDS011;51029;51.058;13.826;2022-07-06T06:37:04;5.47;;;3.60;;
64619;SDS011;51029;51.058;13.826;2022-07-06T06:39:30;6.00;;;3.37;;
64619;SDS011;51029;51.058;13.826;2022-07-06T06:41:56;6.97;;;3.30;;
64619;SDS011;51029;51.058;13.826;2022-07-06T06:44:22;5.03;;;3.10;;
64619;SDS011;51029;51.058;13.826;2022-07-06T06:46:48;7.60;;;3.10;;
64619;SDS011;51029;51.058;13.826;2022-07-06T06:49:14;3.17;;;2.80;;
64619;SDS011;51029;51.058;13.826;2022-07-06T06:51:40;5.23;;;3.27;;
64619;SDS011;51029;51.058;13.826;2022-07-06T06:54:06;5.67;;;2.80;;
64619;SDS011;51029;51.058;13.826;2022-07-06T06:56:32;6.13;;;2.90;;
64619;SDS011;51029;51.058;13.826;2022-07-06T06:58:58;4.50;;;2.50;;
64619;SDS011;51029;51.058;13.826;2022-07-06T07:01:24;7.03;;;2.60;;
64619;SDS011;51029;51.058;13.826;2022-07-06T07:03:50;4.33;;;2.40;;
64619;SDS011;51029;51.058;13.826;2022-07-06T07:06:17;6.63;;;2.50;;
64619;SDS011;51029;51.058;13.826;2022-07-06T07:08:43;3.53;;;2.27;;
64619;SDS011;51029;51.058;13.826;2022-07-06T07:11:08;5.40;;;2.40;;
64619;SDS011;51029;51.058;13.826;2022-07-06T07:13:34;3.53;;;2.23;;
64619;SDS011;51029;51.058;13.826;2022-07-06T07:16:00;4.30;;;2.00;;
64619;SDS011;51029;51.058;13.826;2022-07-06T07:18:26;3.27;;;1.90;;
64619;SDS011;51029;51.058;13.826;2022-07-06T07:20:52;5.20;;;2.30;;
64619;SDS011;51029;51.058;13.826;2022-07-06T07:23:18;4.23;;;2.53;;
64619;SDS011;51029;51.058;13.826;2022-07-06T07:25:44;3.90;;;1.93;;
64619;SDS011;51029;51.058;13.826;2022-07-06T07:28:10;3.07;;;1.60;;
64619;SDS011;51029;51.058;13.826;2022-07-06T07:30:36;3.53;;;2.03;;
64619;SDS011;51029;51.058;13.826;2022-07-06T07:33:02;3.97;;;1.97;;
64619;SDS011;51029;51.058;13.826;2022-07-06T07:35:28;4.47;;;1.80;;
64619;SDS011;51029;51.058;13.826;2022-07-06T07:37:54;4.60;;;2.20;;
64619;SDS011;51029;51.058;13.826;2022-07-06T07:40:20;4.00;;;1.97;;
64619;SDS011;51029;51.058;13.826;2022-07-06T07:42:46;3.37;;;2.10;;
64619;SDS011;51029;51.058;13.826;2022-07-06T07:45:12;3.50;;;2.00;;
64619;SDS011;51029;51.058;13.826;2022-07-06T07:47:38;4.47;;;1.93;;
64619;SDS011;51029;51.058;13.826;2022-07-06T07:50:05;5.23;;;2.20;;
64619;SDS011;51029;51.058;13.826;2022-07-06T07:52:31;3.83;;;2.13;;
64619;SDS011;51029;51.058;13.826;2022-07-06T07:54:57;3.87;;;1.73;;
64619;SDS011;51029;51.058;13.826;2022-07-06T07:57:24;3.90;;;1.80;;
64619;SDS011;51029;51.058;13.826;2022-07-06T07:59:50;5.90;;;1.70;;
64619;SDS011;51029;51.058;13.826;2022-07-06T08:02:16;3.87;;;1.53;;
64619;SDS011;51029;51.058;13.826;2022-07-06T08:04:41;2.03;;;1.60;;
64619;SDS011;51029;51.058;13.826;2022-07-06T08:07:07;6.33;;;1.60;;
64619;SDS011;51029;51.058;13.826;2022-07-06T08:09:33;3.83;;;1.70;;
64619;SDS011;51029;51.058;13.826;2022-07-06T08:11:59;5.57;;;1.63;;
64619;SDS011;51029;51.058;13.826;2022-07-06T08:14:25;5.50;;;1.47;;
64619;SDS011;51029;51.058;13.826;2022-07-06T08:16:51;4.53;;;1.53;;
64619;SDS011;51029;51.058;13.826;2022-07-06T08:19:17;2.93;;;1.43;;
64619;SDS011;51029;51.058;13.826;2022-07-06T08:21:43;3.77;;;1.40;;
64619;SDS011;51029;51.058;13.826;2022-07-06T08:24:10;6.13;;;1.20;;
64619;SDS011;51029;51.058;13.826;2022-07-06T08:26:36;3.83;;;1.20;;
64619;SDS011;51029;51.058;13.826;2022-07-06T08:29:02;4.40;;;1.47;;
64619;SDS011;51029;51.058;13.826;2022-07-06T08:31:28;2.80;;;1.20;;
64619;SDS011;51029;51.058;13.826;2022-07-06T08:33:55;3.37;;;1.20;;
64619;SDS011;51029;51.058;13.826;2022-07-06T08:36:21;2.37;;;1.23;;
64619;SDS011;51029;51.058;13.826;2022-07-06T08:38:48;2.40;;;1.10;;
64619;SDS011;51029;51.058;13.826;2022-07-06T08:41:15;5.13;;;1.17;;
64619;SDS011;51029;51.058;13.826;2022-07-06T08:43:41;2.50;;;1.40;;
64619;SDS011;51029;51.058;13.826;2022-07-06T08:46:07;8.07;;;1.63;;
64619;SDS011;51029;51.058;13.826;2022-07-06T08:48:37;4.50;;;1.10;;
64619;SDS011;51029;51.058;13.826;2022-07-06T08:51:04;3.17;;;1.00;;
64619;SDS011;51029;51.058;13.826;2022-07-06T08:53:30;2.27;;;1.17;;
64619;SDS011;51029;51.058;13.826;2022-07-06T08:55:56;4.97;;;1.37;;
64619;SDS011;51029;51.058;13.826;2022-07-06T08:58:25;1.93;;;1.00;;
64619;SDS011;51029;51.058;13.826;2022-07-06T09:00:55;1.23;;;1.13;;
64619;SDS011;51029;51.058;13.826;2022-07-06T09:03:22;3.23;;;1.10;;
64619;SDS011;51029;51.058;13.826;2022-07-06T09:05:48;2.73;;;1.20;;
64619;SDS011;51029;51.058;13.826;2022-07-06T09:08:16;3.80;;;1.47;;
64619;SDS011;51029;51.058;13.826;2022-07-06T09:10:43;3.70;;;1.87;;
64619;SDS011;51029;51.058;13.826;2022-07-06T09:13:09;2.73;;;1.30;;
64619;SDS011;51029;51.058;13.826;2022-07-06T09:15:36;5.17;;;1.10;;
64619;SDS011;51029;51.058;13.826;2022-07-06T09:18:05;3.73;;;1.33;;
64619;SDS011;51029;51.058;13.826;2022-07-06T09:20:32;2.67;;;1.33;;
64619;SDS011;51029;51.058;13.826;2022-07-06T09:23:00;2.73;;;1.27;;
64619;SDS011;51029;51.058;13.826;2022-07-06T09:25:26;3.20;;;1.40;;
64619;SDS011;51029;51.058;13.826;2022-07-06T09:27:52;2.90;;;1.20;;
64619;SDS011;51029;51.058;13.826;2022-07-06T09:30:22;4.13;;;1.20;;
64619;SDS011;51029;51.058;13.826;2022-07-06T09:32:49;2.77;;;1.20;;
64619;SDS011;51029;51.058;13.826;2022-07-06T09:35:29;2.27;;;1.27;;
64619;SDS011;51029;51.058;13.826;2022-07-06T09:40:38;2.20;;;1.20;;
64619;SDS011;51029;51.058;13.826;2022-07-06T09:43:10;2.30;;;1.10;;
64619;SDS011;51029;51.058;13.826;2022-07-06T09:45:40;3.60;;;1.30;;
64619;SDS011;51029;51.058;13.826;2022-07-06T09:48:08;3.77;;;1.20;;
64619;SDS011;51029;51.058;13.826;2022-07-06T09:50:47;4.40;;;1.40;;
64619;SDS011;51029;51.058;13.826;2022-07-06T09:53:13;3.23;;;1.17;;
64619;SDS011;51029;51.058;13.826;2022-07-06T09:55:43;2.53;;;1.40;;
64619;SDS011;51029;51.058;13.826;2022-07-06T09:58:09;2.80;;;1.40;;
64619;SDS011;51029;51.058;13.826;2022-07-06T10:00:35;2.30;;;1.20;;
64619;SDS011;51029;51.058;13.826;2022-07-06T10:03:01;2.37;;;1.47;;
64619;SDS011;51029;51.058;13.826;2022-07-06T10:05:27;4.20;;;1.40;;
64619;SDS011;51029;51.058;13.826;2022-07-06T10:08:00;2.70;;;1.30;;
64619;SDS011;51029;51.058;13.826;2022-07-06T10:10:29;3.00;;;1.30;;
64619;SDS011;51029;51.058;13.826;2022-07-06T10:12:56;3.17;;;1.20;;
64619;SDS011;51029;51.058;13.826;2022-07-06T10:15:23;3.23;;;1.40;;
64619;SDS011;51029;51.058;13.826;2022-07-06T10:17:50;3.30;;;1.40;;
64619;SDS011;51029;51.058;13.826;2022-07-06T10:20:17;2.73;;;1.33;;
64619;SDS011;51029;51.058;13.826;2022-07-06T10:22:43;3.80;;;1.70;;
64619;SDS011;51029;51.058;13.826;2022-07-06T10:25:10;4.87;;;1.67;;
64619;SDS011;51029;51.058;13.826;2022-07-06T10:27:36;5.10;;;1.60;;
64619;SDS011;51029;51.058;13.826;2022-07-06T10:30:03;3.27;;;1.40;;
64619;SDS011;51029;51.058;13.826;2022-07-06T10:32:30;2.50;;;1.23;;
64619;SDS011;51029;51.058;13.826;2022-07-06T10:34:56;2.93;;;1.40;;
64619;SDS011;51029;51.058;13.826;2022-07-06T10:37:23;2.23;;;1.37;;
64619;SDS011;51029;51.058;13.826;2022-07-06T10:39:49;2.00;;;1.20;;
64619;SDS011;51029;51.058;13.826;2022-07-06T10:45:07;2.53;;;1.40;;
64619;SDS011;51029;51.058;13.826;2022-07-06T10:47:34;3.97;;;1.40;;
64619;SDS011;51029;51.058;13.826;2022-07-06T10:50:00;2.03;;;1.33;;
64619;SDS011;51029;51.058;13.826;2022-07-06T10:53:09;3.23;;;1.50;;
64619;SDS011;51029;51.058;13.826;2022-07-06T10:55:28;2.27;;;1.30;;
64619;SDS011;51029;51.058;13.826;2022-07-06T10:57:57;5.03;;;1.30;;
64619;SDS011;51029;51.058;13.826;2022-07-06T11:00:24;1.52;;;1.00;;
64619;SDS011;51029;51.058;13.826;2022-07-06T11:02:50;4.82;;;1.35;;
64619;SDS011;51029;51.058;13.826;2022-07-06T11:08:01;4.20;;;1.10;;
64619;SDS011;51029;51.058;13.826;2022-07-06T11:10:27;8.03;;;1.50;;
64619;SDS011;51029;51.058;13.826;2022-07-06T11:12:59;2.97;;;1.30;;
64619;SDS011;51029;51.058;13.826;2022-07-06T11:15:46;1.97;;;1.23;;
64619;SDS011;51029;51.058;13.826;2022-07-06T11:18:13;6.70;;;1.83;;
64619;SDS011;51029;51.058;13.826;2022-07-06T11:20:39;1.70;;;1.00;;
64619;SDS011;51029;51.058;13.826;2022-07-06T11:23:05;3.20;;;1.10;;
64619;SDS011;51029;51.058;13.826;2022-07-06T11:25:31;3.43;;;1.30;;
64619;SDS011;51029;51.058;13.826;2022-07-06T11:27:57;6.10;;;1.60;;
64619;SDS011;51029;51.058;13.826;2022-07-06T11:30:23;3.17;;;1.50;;
64619;SDS011;51029;51.058;13.826;2022-07-06T11:32:50;2.40;;;1.37;;
64619;SDS011;51029;51.058;13.826;2022-07-06T11:35:22;4.17;;;1.40;;
64619;SDS011;51029;51.058;13.826;2022-07-06T11:37:48;4.10;;;1.13;;
64619;SDS011;51029;51.058;13.826;2022-07-06T11:40:14;2.40;;;1.20;;
64619;SDS011;51029;51.058;13.826;2022-07-06T11:42:53;3.95;;;1.40;;
64619;SDS011;51029;51.058;13.826;2022-07-06T11:45:26;2.97;;;0.98;;
64619;SDS011;51029;51.058;13.826;2022-07-06T11:48:08;2.17;;;1.05;;
64619;SDS011;51029;51.058;13.826;2022-07-06T11:50:34;5.10;;;1.08;;
64619;SDS011;51029;51.058;13.826;2022-07-06T11:53:00;1.90;;;1.13;;
64619;SDS011;51029;51.058;13.826;2022-07-06T11:55:28;5.03;;;1.40;;
64619;SDS011;51029;51.058;13.826;2022-07-06T11:57:54;2.63;;;1.33;;
64619;SDS011;51029;51.058;13.826;2022-07-06T12:00:22;3.17;;;1.20;;
64619;SDS011;51029;51.058;13.826;2022-07-06T12:03:00;2.43;;;1.10;;
64619;SDS011;51029;51.058;13.826;2022-07-06T12:05:30;4.07;;;1.50;;
64619;SDS011;51029;51.058;13.826;2022-07-06T12:08:05;3.53;;;1.30;;
64619;SDS011;51029;51.058;13.826;2022-07-06T12:10:34;4.20;;;1.40;;
64619;SDS011;51029;51.058;13.826;2022-07-06T12:13:03;3.17;;;1.30;;
64619;SDS011;51029;51.058;13.826;2022-07-06T12:15:29;4.73;;;1.10;;
64619;SDS011;51029;51.058;13.826;2022-07-06T12:17:55;1.20;;;0.90;;
64619;SDS011;51029;51.058;13.826;2022-07-06T12:20:21;3.90;;;1.10;;
64619;SDS011;51029;51.058;13.826;2022-07-06T12:22:49;2.28;;;1.40;;
64619;SDS011;51029;51.058;13.826;2022-07-06T12:25:34;2.30;;;1.10;;
64619;SDS011;51029;51.058;13.826;2022-07-06T12:28:00;3.78;;;1.13;;
64619;SDS011;51029;51.058;13.826;2022-07-06T12:30:26;2.05;;;1.05;;
64619;SDS011;51029;51.058;13.826;2022-07-06T12:35:37;3.42;;;1.08;;
64619;SDS011;51029;51.058;13.826;2022-07-06T12:38:03;2.83;;;1.02;;
64619;SDS011;51029;51.058;13.826;2022-07-06T12:40:29;1.75;;;0.98;;
64619;SDS011;51029;51.058;13.826;2022-07-06T12:42:56;2.15;;;0.82;;
64619;SDS011;51029;51.058;13.826;2022-07-06T12:45:28;2.13;;;1.13;;
64619;SDS011;51029;51.058;13.826;2022-07-06T12:48:00;2.47;;;1.08;;
64619;SDS011;51029;51.058;13.826;2022-07-06T12:50:30;2.50;;;0.88;;
64619;SDS011;51029;51.058;13.826;2022-07-06T12:53:00;1.45;;;0.80;;
64619;SDS011;51029;51.058;13.826;2022-07-06T12:55:26;2.63;;;0.98;;
64619;SDS011;51029;51.058;13.826;2022-07-06T12:57:53;1.70;;;0.80;;
64619;SDS011;51029;51.058;13.826;2022-07-06T13:00:20;1.58;;;0.95;;
64619;SDS011;51029;51.058;13.826;2022-07-06T13:02:53;1.60;;;0.77;;
64619;SDS011;51029;51.058;13.826;2022-07-06T13:05:23;2.30;;;1.00;;
64619;SDS011;51029;51.058;13.826;2022-07-06T13:07:53;3.03;;;1.02;;
64619;SDS011;51029;51.058;13.826;2022-07-06T13:10:20;3.80;;;1.45;;
64619;SDS011;51029;51.058;13.826;2022-07-06T13:12:46;4.32;;;1.20;;
64619;SDS011;51029;51.058;13.826;2022-07-06T13:15:12;2.28;;;1.00;;
64619;SDS011;51029;51.058;13.826;2022-07-06T13:17:38;3.10;;;1.10;;
64619;SDS011;51029;51.058;13.826;2022-07-06T13:20:04;2.92;;;1.00;;
64619;SDS011;51029;51.058;13.826;2022-07-06T13:22:31;5.10;;;1.33;;
64619;SDS011;51029;51.058;13.826;2022-07-06T13:24:57;3.55;;;1.25;;
64619;SDS011;51029;51.058;13.826;2022-07-06T13:27:22;3.53;;;0.95;;
64619;SDS011;51029;51.058;13.826;2022-07-06T13:29:48;6.00;;;1.23;;
64619;SDS011;51029;51.058;13.826;2022-07-06T13:32:14;4.53;;;1.15;;
64619;SDS011;51029;51.058;13.826;2022-07-06T13:34:40;2.33;;;0.90;;
64619;SDS011;51029;51.058;13.826;2022-07-06T13:37:06;2.53;;;0.82;;
64619;SDS011;51029;51.058;13.826;2022-07-06T13:39:32;3.65;;;0.90;;
64619;SDS011;51029;51.058;13.826;2022-07-06T13:41:58;3.00;;;0.90;;
64619;SDS011;51029;51.058;13.826;2022-07-06T13:44:24;2.88;;;0.90;;
64619;SDS011;51029;51.058;13.826;2022-07-06T13:46:50;2.88;;;0.80;;
64619;SDS011;51029;51.058;13.826;2022-07-06T13:49:16;2.72;;;1.10;;
64619;SDS011;51029;51.058;13.826;2022-07-06T13:51:42;2.58;;;0.90;;
64619;SDS011;51029;51.058;13.826;2022-07-06T13:54:09;3.20;;;0.70;;
64619;SDS011;51029;51.058;13.826;2022-07-06T13:56:36;3.92;;;1.33;;
64619;SDS011;51029;51.058;13.826;2022-07-06T13:59:02;2.45;;;0.80;;
64619;SDS011;51029;51.058;13.826;2022-07-06T14:01:28;4.47;;;1.10;;
64619;SDS011;51029;51.058;13.826;2022-07-06T14:03:54;1.98;;;0.80;;
64619;SDS011;51029;51.058;13.826;2022-07-06T14:06:20;1.58;;;0.80;;
64619;SDS011;51029;51.058;13.826;2022-07-06T14:08:47;3.63;;;0.88;;
64619;SDS011;51029;51.058;13.826;2022-07-06T14:11:13;2.25;;;0.90;;
64619;SDS011;51029;51.058;13.826;2022-07-06T14:13:39;4.72;;;1.00;;
64619;SDS011;51029;51.058;13.826;2022-07-06T14:16:05;2.17;;;0.93;;
64619;SDS011;51029;51.058;13.826;2022-07-06T14:18:32;1.88;;;0.90;;
64619;SDS011;51029;51.058;13.826;2022-07-06T14:20:58;2.33;;;0.90;;
64619;SDS011;51029;51.058;13.826;2022-07-06T14:23:25;3.88;;;0.98;;
64619;SDS011;51029;51.058;13.826;2022-07-06T14:25:51;4.35;;;0.95;;
64619;SDS011;51029;51.058;13.826;2022-07-06T14:28:19;3.90;;;1.00;;
64619;SDS011;51029;51.058;13.826;2022-07-06T14:30:45;2.25;;;0.90;;
64619;SDS011;51029;51.058;13.826;2022-07-06T14:33:12;2.50;;;1.10;;
64619;SDS011;51029;51.058;13.826;2022-07-06T14:35:39;3.13;;;0.90;;
64619;SDS011;51029;51.058;13.826;2022-07-06T14:38:06;7.33;;;2.13;;
64619;SDS011;51029;51.058;13.826;2022-07-06T14:40:32;1.80;;;1.07;;
64619;SDS011;51029;51.058;13.826;2022-07-06T14:42:58;2.97;;;1.00;;